sensor_id;sensor_type;location;lat;lon;timestamp;temperature;humidity
68766;DHT22;55756;45.582;11.484;2023-02-19T00:01:44;13.60;59.90
68766;DHT22;55756;45.582;11.484;2023-02-19T00:06:39;13.60;60.00
68766;DHT22;55756;45.582;11.484;2023-02-19T00:09:05;13.60;59.80
68766;DHT22;55756;45.582;11.484;2023-02-19T00:11:32;13.60;59.90
68766;DHT22;55756;45.582;11.484;2023-02-19T00:13:59;13.60;59.80
68766;DHT22;55756;45.582;11.484;2023-02-19T00:16:37;13.60;59.80
68766;DHT22;55756;45.582;11.484;2023-02-19T00:19:05;13.60;59.80
68766;DHT22;55756;45.582;11.484;2023-02-19T00:21:31;13.50;59.80
68766;DHT22;55756;45.582;11.484;2023-02-19T00:24:03;13.60;59.90
68766;DHT22;55756;45.582;11.484;2023-02-19T00:26:30;13.60;60.10
68766;DHT22;55756;45.582;11.484;2023-02-19T00:28:56;13.70;59.80
68766;DHT22;55756;45.582;11.484;2023-02-19T00:31:32;13.70;59.70
68766;DHT22;55756;45.582;11.484;2023-02-19T00:34:03;13.70;59.70
68766;DHT22;55756;45.582;11.484;2023-02-19T00:36:30;13.70;59.80
68766;DHT22;55756;45.582;11.484;2023-02-19T00:38:57;13.70;60.00
68766;DHT22;55756;45.582;11.484;2023-02-19T00:41:23;13.70;59.90
68766;DHT22;55756;45.582;11.484;2023-02-19T00:44:08;13.70;59.80
68766;DHT22;55756;45.582;11.484;2023-02-19T00:46:37;13.70;59.70
68766;DHT22;55756;45.582;11.484;2023-02-19T00:49:04;13.70;59.70
68766;DHT22;55756;45.582;11.484;2023-02-19T00:51:32;13.70;59.70
68766;DHT22;55756;45.582;11.484;2023-02-19T00:54:02;13.70;59.80
68766;DHT22;55756;45.582;11.484;2023-02-19T00:56:28;13.70;59.60
68766;DHT22;55756;45.582;11.484;2023-02-19T00:58:54;13.60;59.60
68766;DHT22;55756;45.582;11.484;2023-02-19T01:01:23;13.60;59.80
68766;DHT22;55756;45.582;11.484;2023-02-19T01:03:49;13.60;59.80
68766;DHT22;55756;45.582;11.484;2023-02-19T01:06:17;13.60;59.90
68766;DHT22;55756;45.582;11.484;2023-02-19T01:08:44;13.60;60.10
68766;DHT22;55756;45.582;11.484;2023-02-19T01:11:10;13.60;60.20
68766;DHT22;55756;45.582;11.484;2023-02-19T01:13:37;13.50;60.10
68766;DHT22;55756;45.582;11.484;2023-02-19T01:16:07;13.50;60.00
68766;DHT22;55756;45.582;11.484;2023-02-19T01:18:34;13.50;60.00
68766;DHT22;55756;45.582;11.484;2023-02-19T01:21:07;13.50;59.90
68766;DHT22;55756;45.582;11.484;2023-02-19T01:23:34;13.50;59.90
68766;DHT22;55756;45.582;11.484;2023-02-19T01:26:03;13.50;59.90
68766;DHT22;55756;45.582;11.484;2023-02-19T01:28:29;13.50;59.90
68766;DHT22;55756;45.582;11.484;2023-02-19T01:30:55;13.50;60.00
68766;DHT22;55756;45.582;11.484;2023-02-19T01:33:20;13.60;59.90
68766;DHT22;55756;45.582;11.484;2023-02-19T01:35:46;13.50;59.70
68766;DHT22;55756;45.582;11.484;2023-02-19T01:38:12;13.50;59.80
68766;DHT22;55756;45.582;11.484;2023-02-19T01:40:38;13.60;59.90
68766;DHT22;55756;45.582;11.484;2023-02-19T01:43:08;13.60;59.50
68766;DHT22;55756;45.582;11.484;2023-02-19T01:45:38;13.70;59.30
68766;DHT22;55756;45.582;11.484;2023-02-19T01:48:18;13.70;59.40
68766;DHT22;55756;45.582;11.484;2023-02-19T01:50:52;13.80;59.50
68766;DHT22;55756;45.582;11.484;2023-02-19T01:53:22;13.80;59.50
68766;DHT22;55756;45.582;11.484;2023-02-19T01:55:53;13.70;59.70
68766;DHT22;55756;45.582;11.484;2023-02-19T01:58:22;13.70;59.70
68766;DHT22;55756;45.582;11.484;2023-02-19T02:00:48;13.70;59.70
68766;DHT22;55756;45.582;11.484;2023-02-19T02:03:17;13.80;59.80
68766;DHT22;55756;45.582;11.484;2023-02-19T02:06:07;13.70;59.90
68766;DHT22;55756;45.582;11.484;2023-02-19T02:08:33;13.70;60.10
68766;DHT22;55756;45.582;11.484;2023-02-19T02:11:20;13.70;60.10
68766;DHT22;55756;45.582;11.484;2023-02-19T02:13:46;13.70;60.00
68766;DHT22;55756;45.582;11.484;2023-02-19T02:16:23;13.60;60.10
68766;DHT22;55756;45.582;11.484;2023-02-19T02:24:30;13.60;60.40
68766;DHT22;55756;45.582;11.484;2023-02-19T02:35:51;13.60;60.50
68766;DHT22;55756;45.582;11.484;2023-02-19T02:38:24;13.50;60.90
68766;DHT22;55756;45.582;11.484;2023-02-19T02:40:53;13.50;61.00
68766;DHT22;55756;45.582;11.484;2023-02-19T02:43:20;13.50;61.00
68766;DHT22;55756;45.582;11.484;2023-02-19T02:45:46;13.60;60.70
68766;DHT22;55756;45.582;11.484;2023-02-19T02:48:54;13.60;60.70
68766;DHT22;55756;45.582;11.484;2023-02-19T02:51:43;13.60;60.70
68766;DHT22;55756;45.582;11.484;2023-02-19T02:54:19;13.50;60.70
68766;DHT22;55756;45.582;11.484;2023-02-19T02:57:10;13.50;60.80
68766;DHT22;55756;45.582;11.484;2023-02-19T02:59:45;13.50;60.80
68766;DHT22;55756;45.582;11.484;2023-02-19T03:02:22;13.50;60.90
68766;DHT22;55756;45.582;11.484;2023-02-19T03:08:26;13.40;60.90
68766;DHT22;55756;45.582;11.484;2023-02-19T03:13:45;13.40;60.90
68766;DHT22;55756;45.582;11.484;2023-02-19T03:16:33;13.40;60.80
68766;DHT22;55756;45.582;11.484;2023-02-19T03:19:24;13.30;60.80
68766;DHT22;55756;45.582;11.484;2023-02-19T03:21:59;13.40;60.80
68766;DHT22;55756;45.582;11.484;2023-02-19T03:24:32;13.50;60.60
68766;DHT22;55756;45.582;11.484;2023-02-19T03:27:19;13.60;60.30
68766;DHT22;55756;45.582;11.484;2023-02-19T03:29:51;13.60;60.40
68766;DHT22;55756;45.582;11.484;2023-02-19T03:33:13;13.50;60.30
68766;DHT22;55756;45.582;11.484;2023-02-19T03:35:37;13.60;60.50
68766;DHT22;55756;45.582;11.484;2023-02-19T03:41:25;13.50;60.60
68766;DHT22;55756;45.582;11.484;2023-02-19T03:46:44;13.40;61.10
68766;DHT22;55756;45.582;11.484;2023-02-19T03:52:46;13.40;61.10
68766;DHT22;55756;45.582;11.484;2023-02-19T03:58:07;13.40;61.10
68766;DHT22;55756;45.582;11.484;2023-02-19T04:00:42;13.50;60.90
68766;DHT22;55756;45.582;11.484;2023-02-19T04:03:40;13.50;60.80
68766;DHT22;55756;45.582;11.484;2023-02-19T04:06:29;13.50;60.80
68766;DHT22;55756;45.582;11.484;2023-02-19T04:09:00;13.40;61.00
68766;DHT22;55756;45.582;11.484;2023-02-19T04:11:29;13.40;61.20
68766;DHT22;55756;45.582;11.484;2023-02-19T04:14:06;13.50;61.30
68766;DHT22;55756;45.582;11.484;2023-02-19T04:16:39;13.60;61.00
68766;DHT22;55756;45.582;11.484;2023-02-19T04:19:09;13.60;60.80
68766;DHT22;55756;45.582;11.484;2023-02-19T04:21:38;13.50;60.90
68766;DHT22;55756;45.582;11.484;2023-02-19T04:24:13;13.50;61.20
68766;DHT22;55756;45.582;11.484;2023-02-19T04:26:41;13.50;61.10
68766;DHT22;55756;45.582;11.484;2023-02-19T04:29:08;13.50;61.20
68766;DHT22;55756;45.582;11.484;2023-02-19T04:31:34;13.50;61.10
68766;DHT22;55756;45.582;11.484;2023-02-19T04:34:01;13.50;61.10
68766;DHT22;55756;45.582;11.484;2023-02-19T04:36:31;13.60;61.00
68766;DHT22;55756;45.582;11.484;2023-02-19T04:38:57;13.60;60.90
68766;DHT22;55756;45.582;11.484;2023-02-19T04:41:23;13.60;60.80
68766;DHT22;55756;45.582;11.484;2023-02-19T04:43:49;13.60;60.80
68766;DHT22;55756;45.582;11.484;2023-02-19T04:46:21;13.50;61.10
68766;DHT22;55756;45.582;11.484;2023-02-19T04:48:47;13.50;61.00
68766;DHT22;55756;45.582;11.484;2023-02-19T04:51:12;13.50;61.20
68766;DHT22;55756;45.582;11.484;2023-02-19T04:53:38;13.50;61.40
68766;DHT22;55756;45.582;11.484;2023-02-19T04:56:08;13.50;61.40
68766;DHT22;55756;45.582;11.484;2023-02-19T04:58:34;13.50;61.30
68766;DHT22;55756;45.582;11.484;2023-02-19T05:01:00;13.60;61.00
68766;DHT22;55756;45.582;11.484;2023-02-19T05:03:26;13.50;61.00
68766;DHT22;55756;45.582;11.484;2023-02-19T05:05:52;13.50;61.10
68766;DHT22;55756;45.582;11.484;2023-02-19T05:08:18;13.50;61.20
68766;DHT22;55756;45.582;11.484;2023-02-19T05:10:45;13.50;61.20
68766;DHT22;55756;45.582;11.484;2023-02-19T05:13:10;13.60;61.00
68766;DHT22;55756;45.582;11.484;2023-02-19T05:15:36;13.60;60.80
68766;DHT22;55756;45.582;11.484;2023-02-19T05:18:02;13.60;60.80
68766;DHT22;55756;45.582;11.484;2023-02-19T05:20:28;13.50;60.90
68766;DHT22;55756;45.582;11.484;2023-02-19T05:22:54;13.40;61.10
68766;DHT22;55756;45.582;11.484;2023-02-19T05:25:20;13.40;61.30
68766;DHT22;55756;45.582;11.484;2023-02-19T05:27:46;13.50;61.10
68766;DHT22;55756;45.582;11.484;2023-02-19T05:30:11;13.50;61.10
68766;DHT22;55756;45.582;11.484;2023-02-19T05:32:37;13.50;61.10
68766;DHT22;55756;45.582;11.484;2023-02-19T05:35:03;13.60;60.90
68766;DHT22;55756;45.582;11.484;2023-02-19T05:37:29;13.60;60.70
68766;DHT22;55756;45.582;11.484;2023-02-19T05:39:55;13.60;60.60
68766;DHT22;55756;45.582;11.484;2023-02-19T05:42:21;13.60;60.80
68766;DHT22;55756;45.582;11.484;2023-02-19T05:44:46;13.50;61.10
68766;DHT22;55756;45.582;11.484;2023-02-19T05:47:15;13.60;61.00
68766;DHT22;55756;45.582;11.484;2023-02-19T05:49:41;13.60;60.80
68766;DHT22;55756;45.582;11.484;2023-02-19T05:52:07;13.60;60.80
68766;DHT22;55756;45.582;11.484;2023-02-19T05:54:33;13.50;60.90
68766;DHT22;55756;45.582;11.484;2023-02-19T05:57:11;13.50;61.30
68766;DHT22;55756;45.582;11.484;2023-02-19T05:59:36;13.50;61.30
68766;DHT22;55756;45.582;11.484;2023-02-19T06:02:02;13.50;61.50
68766;DHT22;55756;45.582;11.484;2023-02-19T06:04:28;13.50;61.70
68766;DHT22;55756;45.582;11.484;2023-02-19T06:06:53;13.60;61.60
68766;DHT22;55756;45.582;11.484;2023-02-19T06:09:19;13.60;61.50
68766;DHT22;55756;45.582;11.484;2023-02-19T06:11:45;13.50;61.50
68766;DHT22;55756;45.582;11.484;2023-02-19T06:14:12;13.40;61.90
68766;DHT22;55756;45.582;11.484;2023-02-19T06:16:38;13.50;62.00
68766;DHT22;55756;45.582;11.484;2023-02-19T06:19:04;13.60;61.70
68766;DHT22;55756;45.582;11.484;2023-02-19T06:21:30;13.60;61.50
68766;DHT22;55756;45.582;11.484;2023-02-19T06:23:55;13.60;61.60
68766;DHT22;55756;45.582;11.484;2023-02-19T06:26:24;13.50;61.80
68766;DHT22;55756;45.582;11.484;2023-02-19T06:28:51;13.50;61.80
68766;DHT22;55756;45.582;11.484;2023-02-19T06:31:18;13.50;61.80
68766;DHT22;55756;45.582;11.484;2023-02-19T06:33:45;13.50;62.00
68766;DHT22;55756;45.582;11.484;2023-02-19T06:36:13;13.50;62.00
68766;DHT22;55756;45.582;11.484;2023-02-19T06:38:39;13.60;61.80
68766;DHT22;55756;45.582;11.484;2023-02-19T06:41:05;13.50;61.60
68766;DHT22;55756;45.582;11.484;2023-02-19T06:43:32;13.40;61.70
68766;DHT22;55756;45.582;11.484;2023-02-19T06:45:59;13.40;62.10
68766;DHT22;55756;45.582;11.484;2023-02-19T06:48:27;13.40;62.00
68766;DHT22;55756;45.582;11.484;2023-02-19T06:50:54;13.40;62.10
68766;DHT22;55756;45.582;11.484;2023-02-19T06:53:21;13.30;62.10
68766;DHT22;55756;45.582;11.484;2023-02-19T06:55:57;13.30;62.40
68766;DHT22;55756;45.582;11.484;2023-02-19T06:58:23;13.30;62.40
68766;DHT22;55756;45.582;11.484;2023-02-19T07:00:48;13.40;62.10
68766;DHT22;55756;45.582;11.484;2023-02-19T07:03:14;13.30;62.20
68766;DHT22;55756;45.582;11.484;2023-02-19T07:05:40;13.40;62.30
68766;DHT22;55756;45.582;11.484;2023-02-19T07:08:05;13.30;62.30
68766;DHT22;55756;45.582;11.484;2023-02-19T07:10:31;13.40;62.40
68766;DHT22;55756;45.582;11.484;2023-02-19T07:12:57;13.30;62.40
68766;DHT22;55756;45.582;11.484;2023-02-19T07:15:22;13.30;62.60
68766;DHT22;55756;45.582;11.484;2023-02-19T07:17:48;13.40;62.50
68766;DHT22;55756;45.582;11.484;2023-02-19T07:20:14;13.40;62.30
68766;DHT22;55756;45.582;11.484;2023-02-19T07:22:40;13.40;62.30
68766;DHT22;55756;45.582;11.484;2023-02-19T07:25:06;13.40;62.50
68766;DHT22;55756;45.582;11.484;2023-02-19T07:27:33;13.40;62.50
68766;DHT22;55756;45.582;11.484;2023-02-19T07:29:58;13.40;62.40
68766;DHT22;55756;45.582;11.484;2023-02-19T07:32:25;13.40;62.60
68766;DHT22;55756;45.582;11.484;2023-02-19T07:34:50;13.50;62.50
68766;DHT22;55756;45.582;11.484;2023-02-19T07:37:16;13.50;62.50
68766;DHT22;55756;45.582;11.484;2023-02-19T07:39:42;13.50;62.50
68766;DHT22;55756;45.582;11.484;2023-02-19T07:42:07;13.60;62.30
68766;DHT22;55756;45.582;11.484;2023-02-19T07:44:33;13.60;62.10
68766;DHT22;55756;45.582;11.484;2023-02-19T07:46:59;13.60;62.20
68766;DHT22;55756;45.582;11.484;2023-02-19T07:49:24;13.60;62.20
68766;DHT22;55756;45.582;11.484;2023-02-19T07:51:50;13.50;62.20
68766;DHT22;55756;45.582;11.484;2023-02-19T07:54:16;13.60;62.30
68766;DHT22;55756;45.582;11.484;2023-02-19T07:56:42;13.60;62.10
68766;DHT22;55756;45.582;11.484;2023-02-19T07:59:07;13.60;62.10
68766;DHT22;55756;45.582;11.484;2023-02-19T08:01:34;13.50;62.30
68766;DHT22;55756;45.582;11.484;2023-02-19T08:04:18;13.50;62.40
68766;DHT22;55756;45.582;11.484;2023-02-19T08:06:44;13.60;62.20
68766;DHT22;55756;45.582;11.484;2023-02-19T08:09:10;13.60;62.00
68766;DHT22;55756;45.582;11.484;2023-02-19T08:11:36;13.60;62.10
68766;DHT22;55756;45.582;11.484;2023-02-19T08:14:26;13.70;61.90
68766;DHT22;55756;45.582;11.484;2023-02-19T08:16:52;13.60;62.00
68766;DHT22;55756;45.582;11.484;2023-02-19T08:19:21;13.70;62.00
68766;DHT22;55756;45.582;11.484;2023-02-19T08:21:47;13.60;62.10
68766;DHT22;55756;45.582;11.484;2023-02-19T08:24:13;13.70;62.10
68766;DHT22;55756;45.582;11.484;2023-02-19T08:26:38;13.60;62.20
68766;DHT22;55756;45.582;11.484;2023-02-19T08:29:05;13.60;62.40
68766;DHT22;55756;45.582;11.484;2023-02-19T08:31:31;13.70;62.40
68766;DHT22;55756;45.582;11.484;2023-02-19T08:33:57;13.60;62.60
68766;DHT22;55756;45.582;11.484;2023-02-19T08:36:23;13.60;62.70
68766;DHT22;55756;45.582;11.484;2023-02-19T08:38:49;13.70;62.60
68766;DHT22;55756;45.582;11.484;2023-02-19T08:41:15;13.70;62.50
68766;DHT22;55756;45.582;11.484;2023-02-19T08:43:41;13.70;62.70
68766;DHT22;55756;45.582;11.484;2023-02-19T08:46:08;13.80;62.50
68766;DHT22;55756;45.582;11.484;2023-02-19T08:48:35;13.80;62.40
68766;DHT22;55756;45.582;11.484;2023-02-19T08:51:03;13.80;62.40
68766;DHT22;55756;45.582;11.484;2023-02-19T08:53:34;13.80;62.40
68766;DHT22;55756;45.582;11.484;2023-02-19T08:56:11;13.80;62.50
68766;DHT22;55756;45.582;11.484;2023-02-19T08:58:38;13.80;62.40
68766;DHT22;55756;45.582;11.484;2023-02-19T09:01:12;13.80;62.50
68766;DHT22;55756;45.582;11.484;2023-02-19T09:03:38;13.90;62.20
68766;DHT22;55756;45.582;11.484;2023-02-19T09:06:08;14.00;62.00
68766;DHT22;55756;45.582;11.484;2023-02-19T09:08:35;14.00;61.90
68766;DHT22;55756;45.582;11.484;2023-02-19T09:11:02;14.00;62.10
68766;DHT22;55756;45.582;11.484;2023-02-19T09:13:32;14.00;62.10
68766;DHT22;55756;45.582;11.484;2023-02-19T09:15:58;14.00;62.00
68766;DHT22;55756;45.582;11.484;2023-02-19T09:18:24;14.00;61.90
68766;DHT22;55756;45.582;11.484;2023-02-19T09:20:53;14.10;61.90
68766;DHT22;55756;45.582;11.484;2023-02-19T09:23:18;14.10;61.90
68766;DHT22;55756;45.582;11.484;2023-02-19T09:25:45;14.10;61.70
68766;DHT22;55756;45.582;11.484;2023-02-19T09:28:10;14.10;61.80
68766;DHT22;55756;45.582;11.484;2023-02-19T09:30:36;14.00;62.10
68766;DHT22;55756;45.582;11.484;2023-02-19T09:33:04;14.00;62.10
68766;DHT22;55756;45.582;11.484;2023-02-19T09:35:29;14.00;62.10
68766;DHT22;55756;45.582;11.484;2023-02-19T09:37:58;14.00;62.10
68766;DHT22;55756;45.582;11.484;2023-02-19T09:40:24;14.00;61.90
68766;DHT22;55756;45.582;11.484;2023-02-19T09:42:50;13.90;62.00
68766;DHT22;55756;45.582;11.484;2023-02-19T09:45:22;13.80;62.40
68766;DHT22;55756;45.582;11.484;2023-02-19T09:47:53;13.90;62.40
68766;DHT22;55756;45.582;11.484;2023-02-19T09:50:22;13.80;62.60
68766;DHT22;55756;45.582;11.484;2023-02-19T09:52:57;13.80;62.80
68766;DHT22;55756;45.582;11.484;2023-02-19T09:55:33;13.90;62.80
68766;DHT22;55756;45.582;11.484;2023-02-19T09:58:05;13.80;62.70
68766;DHT22;55756;45.582;11.484;2023-02-19T10:00:33;13.90;62.60
68766;DHT22;55756;45.582;11.484;2023-02-19T10:03:06;14.00;62.50
68766;DHT22;55756;45.582;11.484;2023-02-19T10:05:42;14.00;62.30
68766;DHT22;55756;45.582;11.484;2023-02-19T10:08:12;14.00;62.30
68766;DHT22;55756;45.582;11.484;2023-02-19T10:10:43;14.00;62.20
68766;DHT22;55756;45.582;11.484;2023-02-19T10:13:35;14.00;62.40
68766;DHT22;55756;45.582;11.484;2023-02-19T10:16:04;14.00;62.30
68766;DHT22;55756;45.582;11.484;2023-02-19T10:18:37;14.00;62.40
68766;DHT22;55756;45.582;11.484;2023-02-19T10:21:05;14.10;62.30
68766;DHT22;55756;45.582;11.484;2023-02-19T10:23:31;14.10;62.30
68766;DHT22;55756;45.582;11.484;2023-02-19T10:25:59;14.00;62.30
68766;DHT22;55756;45.582;11.484;2023-02-19T10:28:30;14.10;62.40
68766;DHT22;55756;45.582;11.484;2023-02-19T10:31:00;13.90;63.00
68766;DHT22;55756;45.582;11.484;2023-02-19T10:33:26;13.80;63.20
68766;DHT22;55756;45.582;11.484;2023-02-19T10:38:33;13.90;62.80
68766;DHT22;55756;45.582;11.484;2023-02-19T10:41:17;13.90;62.60
68766;DHT22;55756;45.582;11.484;2023-02-19T10:44:15;14.00;62.40
68766;DHT22;55756;45.582;11.484;2023-02-19T10:46:45;14.00;62.40
68766;DHT22;55756;45.582;11.484;2023-02-19T10:49:38;14.00;62.30
68766;DHT22;55756;45.582;11.484;2023-02-19T10:52:29;14.00;62.30
68766;DHT22;55756;45.582;11.484;2023-02-19T10:55:31;14.00;62.50
68766;DHT22;55756;45.582;11.484;2023-02-19T10:58:53;14.00;62.60
68766;DHT22;55756;45.582;11.484;2023-02-19T11:01:24;14.00;62.50
68766;DHT22;55756;45.582;11.484;2023-02-19T11:04:14;14.10;62.60
68766;DHT22;55756;45.582;11.484;2023-02-19T11:12:57;14.20;62.00
68766;DHT22;55756;45.582;11.484;2023-02-19T11:15:34;14.20;61.90
68766;DHT22;55756;45.582;11.484;2023-02-19T11:18:22;14.10;62.00
68766;DHT22;55756;45.582;11.484;2023-02-19T11:21:03;14.20;61.80
68766;DHT22;55756;45.582;11.484;2023-02-19T11:23:43;14.20;61.80
68766;DHT22;55756;45.582;11.484;2023-02-19T11:26:26;14.20;61.40
68766;DHT22;55756;45.582;11.484;2023-02-19T11:28:57;14.20;61.50
68766;DHT22;55756;45.582;11.484;2023-02-19T11:35:46;14.40;61.20
68766;DHT22;55756;45.582;11.484;2023-02-19T11:38:25;14.40;61.20
68766;DHT22;55756;45.582;11.484;2023-02-19T11:41:17;14.50;61.20
68766;DHT22;55756;45.582;11.484;2023-02-19T11:48:54;14.60;60.70
68766;DHT22;55756;45.582;11.484;2023-02-19T11:51:35;14.50;60.60
68766;DHT22;55756;45.582;11.484;2023-02-19T12:05:17;14.60;60.50
68766;DHT22;55756;45.582;11.484;2023-02-19T12:21:43;14.70;59.90
68766;DHT22;55756;45.582;11.484;2023-02-19T12:39:06;14.70;59.40
68766;DHT22;55756;45.582;11.484;2023-02-19T12:42:08;14.80;59.20
68766;DHT22;55756;45.582;11.484;2023-02-19T12:44:50;14.80;59.20
68766;DHT22;55756;45.582;11.484;2023-02-19T12:47:22;14.80;58.90
68766;DHT22;55756;45.582;11.484;2023-02-19T12:50:13;14.80;58.50
68766;DHT22;55756;45.582;11.484;2023-02-19T12:52:51;14.80;58.60
68766;DHT22;55756;45.582;11.484;2023-02-19T12:55:25;14.80;58.40
68766;DHT22;55756;45.582;11.484;2023-02-19T12:57:53;14.80;58.60
68766;DHT22;55756;45.582;11.484;2023-02-19T13:03:38;14.90;58.60
68766;DHT22;55756;45.582;11.484;2023-02-19T13:06:12;14.90;58.50
68766;DHT22;55756;45.582;11.484;2023-02-19T13:08:45;15.00;58.30
68766;DHT22;55756;45.582;11.484;2023-02-19T13:11:18;15.00;58.30
68766;DHT22;55756;45.582;11.484;2023-02-19T13:13:56;15.00;58.50
68766;DHT22;55756;45.582;11.484;2023-02-19T13:16:25;15.10;58.40
68766;DHT22;55756;45.582;11.484;2023-02-19T13:19:02;15.10;58.30
68766;DHT22;55756;45.582;11.484;2023-02-19T13:21:31;15.10;58.30
68766;DHT22;55756;45.582;11.484;2023-02-19T13:24:27;15.10;58.00
68766;DHT22;55756;45.582;11.484;2023-02-19T13:27:02;15.10;57.90
68766;DHT22;55756;45.582;11.484;2023-02-19T13:32:10;15.10;58.00
68766;DHT22;55756;45.582;11.484;2023-02-19T13:35:14;15.00;57.90
68766;DHT22;55756;45.582;11.484;2023-02-19T13:37:44;15.00;57.80
68766;DHT22;55756;45.582;11.484;2023-02-19T13:40:30;15.10;58.00
68766;DHT22;55756;45.582;11.484;2023-02-19T13:43:02;15.10;58.00
68766;DHT22;55756;45.582;11.484;2023-02-19T13:45:32;15.10;57.80
68766;DHT22;55756;45.582;11.484;2023-02-19T13:48:11;15.10;57.80
68766;DHT22;55756;45.582;11.484;2023-02-19T13:50:38;15.10;57.90
68766;DHT22;55756;45.582;11.484;2023-02-19T14:14:52;15.10;57.40
68766;DHT22;55756;45.582;11.484;2023-02-19T14:17:43;15.20;57.50
68766;DHT22;55756;45.582;11.484;2023-02-19T14:28:30;15.10;57.50
68766;DHT22;55756;45.582;11.484;2023-02-19T14:31:14;15.10;57.60
68766;DHT22;55756;45.582;11.484;2023-02-19T14:34:04;15.10;57.50
68766;DHT22;55756;45.582;11.484;2023-02-19T14:36:47;15.00;57.50
68766;DHT22;55756;45.582;11.484;2023-02-19T14:39:32;15.00;57.60
68766;DHT22;55756;45.582;11.484;2023-02-19T14:42:01;15.00;57.60
68766;DHT22;55756;45.582;11.484;2023-02-19T14:44:44;15.00;57.40
68766;DHT22;55756;45.582;11.484;2023-02-19T14:47:14;15.10;57.70
68766;DHT22;55756;45.582;11.484;2023-02-19T14:49:47;15.10;57.70
68766;DHT22;55756;45.582;11.484;2023-02-19T14:52:36;15.10;57.70
68766;DHT22;55756;45.582;11.484;2023-02-19T14:57:38;15.10;57.70
68766;DHT22;55756;45.582;11.484;2023-02-19T15:00:26;15.20;57.80
68766;DHT22;55756;45.582;11.484;2023-02-19T15:02:54;15.10;57.50
68766;DHT22;55756;45.582;11.484;2023-02-19T15:05:32;15.10;57.50
68766;DHT22;55756;45.582;11.484;2023-02-19T15:08:06;15.10;57.60
68766;DHT22;55756;45.582;11.484;2023-02-19T15:10:34;15.10;57.60
68766;DHT22;55756;45.582;11.484;2023-02-19T15:13:03;15.20;57.50
68766;DHT22;55756;45.582;11.484;2023-02-19T15:15:33;15.10;57.40
68766;DHT22;55756;45.582;11.484;2023-02-19T15:18:02;15.10;57.40
68766;DHT22;55756;45.582;11.484;2023-02-19T15:20:31;15.20;57.30
68766;DHT22;55756;45.582;11.484;2023-02-19T15:22:59;15.20;57.30
68766;DHT22;55756;45.582;11.484;2023-02-19T15:25:37;15.20;57.30
68766;DHT22;55756;45.582;11.484;2023-02-19T15:31:35;15.10;57.30
68766;DHT22;55756;45.582;11.484;2023-02-19T15:33:36;15.10;57.40
68766;DHT22;55756;45.582;11.484;2023-02-19T15:36:05;15.10;57.40
68766;DHT22;55756;45.582;11.484;2023-02-19T15:38:31;14.70;58.50
68766;DHT22;55756;45.582;11.484;2023-02-19T15:40:58;14.40;59.70
68766;DHT22;55756;45.582;11.484;2023-02-19T15:46:17;14.00;60.90
68766;DHT22;55756;45.582;11.484;2023-02-19T15:48:50;14.00;61.10
68766;DHT22;55756;45.582;11.484;2023-02-19T15:51:25;14.20;60.60
68766;DHT22;55756;45.582;11.484;2023-02-19T15:53:58;14.40;60.20
68766;DHT22;55756;45.582;11.484;2023-02-19T15:56:34;14.50;59.70
68766;DHT22;55756;45.582;11.484;2023-02-19T15:59:26;14.70;59.30
68766;DHT22;55756;45.582;11.484;2023-02-19T16:01:53;14.70;58.90
68766;DHT22;55756;45.582;11.484;2023-02-19T16:04:19;14.80;58.80
68766;DHT22;55756;45.582;11.484;2023-02-19T16:07:00;14.80;58.70
68766;DHT22;55756;45.582;11.484;2023-02-19T16:11:58;15.00;58.50
68766;DHT22;55756;45.582;11.484;2023-02-19T16:17:17;15.00;58.60
68766;DHT22;55756;45.582;11.484;2023-02-19T16:19:56;14.90;58.60
68766;DHT22;55756;45.582;11.484;2023-02-19T16:22:26;14.90;58.70
68766;DHT22;55756;45.582;11.484;2023-02-19T16:24:57;15.00;58.80
68766;DHT22;55756;45.582;11.484;2023-02-19T16:27:34;15.00;58.60
68766;DHT22;55756;45.582;11.484;2023-02-19T16:30:28;15.00;58.60
68766;DHT22;55756;45.582;11.484;2023-02-19T16:33:20;14.90;58.80
68766;DHT22;55756;45.582;11.484;2023-02-19T16:35:47;14.90;58.80
68766;DHT22;55756;45.582;11.484;2023-02-19T16:38:18;15.00;58.90
68766;DHT22;55756;45.582;11.484;2023-02-19T16:45:45;15.00;58.90
68766;DHT22;55756;45.582;11.484;2023-02-19T16:48:12;14.90;59.00
68766;DHT22;55756;45.582;11.484;2023-02-19T16:50:39;14.90;59.30
68766;DHT22;55756;45.582;11.484;2023-02-19T16:53:28;14.80;59.40
68766;DHT22;55756;45.582;11.484;2023-02-19T16:56:20;14.90;59.00
68766;DHT22;55756;45.582;11.484;2023-02-19T16:58:50;14.90;58.90
68766;DHT22;55756;45.582;11.484;2023-02-19T17:01:19;14.80;59.00
68766;DHT22;55756;45.582;11.484;2023-02-19T17:03:45;14.80;59.20
68766;DHT22;55756;45.582;11.484;2023-02-19T17:06:12;14.80;59.30
68766;DHT22;55756;45.582;11.484;2023-02-19T17:08:41;14.90;59.20
68766;DHT22;55756;45.582;11.484;2023-02-19T17:11:11;14.90;59.20
68766;DHT22;55756;45.582;11.484;2023-02-19T17:13:38;14.80;59.40
68766;DHT22;55756;45.582;11.484;2023-02-19T17:16:05;14.80;59.40
68766;DHT22;55756;45.582;11.484;2023-02-19T17:18:33;14.90;59.00
68766;DHT22;55756;45.582;11.484;2023-02-19T17:21:20;14.90;58.70
68766;DHT22;55756;45.582;11.484;2023-02-19T17:23:51;14.90;58.60
68766;DHT22;55756;45.582;11.484;2023-02-19T17:26:22;15.00;58.50
68766;DHT22;55756;45.582;11.484;2023-02-19T17:28:49;14.90;58.50
68766;DHT22;55756;45.582;11.484;2023-02-19T17:31:15;15.00;58.60
68766;DHT22;55756;45.582;11.484;2023-02-19T17:33:41;14.90;58.70
68766;DHT22;55756;45.582;11.484;2023-02-19T17:36:15;14.90;58.70
68766;DHT22;55756;45.582;11.484;2023-02-19T17:38:41;14.90;58.70
68766;DHT22;55756;45.582;11.484;2023-02-19T17:41:09;14.90;58.70
68766;DHT22;55756;45.582;11.484;2023-02-19T17:43:36;14.90;58.90
68766;DHT22;55756;45.582;11.484;2023-02-19T17:46:02;14.90;59.00
68766;DHT22;55756;45.582;11.484;2023-02-19T17:48:29;14.90;59.20
68766;DHT22;55756;45.582;11.484;2023-02-19T17:50:58;14.80;59.40
68766;DHT22;55756;45.582;11.484;2023-02-19T17:53:24;14.80;59.40
68766;DHT22;55756;45.582;11.484;2023-02-19T17:55:49;14.90;59.20
68766;DHT22;55756;45.582;11.484;2023-02-19T17:58:15;14.90;59.10
68766;DHT22;55756;45.582;11.484;2023-02-19T18:00:41;14.90;59.00
68766;DHT22;55756;45.582;11.484;2023-02-19T18:03:07;14.90;59.00
68766;DHT22;55756;45.582;11.484;2023-02-19T18:05:33;14.90;59.00
68766;DHT22;55756;45.582;11.484;2023-02-19T18:07:58;14.90;59.00
68766;DHT22;55756;45.582;11.484;2023-02-19T18:10:24;14.80;59.20